This is the latest recevied weather packets stored in our database for station/object BV3BA-13. If no packets are shown the sender has not sent any weather packets the latest 10 day(s).
| Time | Temp. | Humidity | Pressure | Rain* | Wind** | Luminosity | Snow |
|---|---|---|---|---|---|---|---|
| 1777339023 | 26.67° C | 53% | 1010.1 hPa | 0 mm | - | - | - |
| 1777313224 | 21.67° C | 85% | 1009.1 hPa | 0 mm | - | - | - |
| 1777311424 | 21.67° C | 86% | 1009.3 hPa | 0 mm | - | - | - |
| 1777310823 | 21.67° C | 85% | 1009.3 hPa | 0 mm | - | - | - |
| 1777309624 | 22.22° C | 84% | 1009.6 hPa | 0 mm | - | - | - |
| 1777307224 | 22.22° C | 83% | 1009.7 hPa | 0 mm | - | - | - |
| 1777305424 | 22.22° C | 84% | 1009.8 hPa | 0 mm | - | - | - |
| 1777304224 | 22.22° C | 82% | 1009.9 hPa | 0 mm | - | - | - |
| 1777303024 | 22.22° C | 83% | 1010 hPa | 0 mm | - | - | - |
| 1777301824 | 22.22° C | 84% | 1010.2 hPa | 0 mm | - | - | - |
| 1777300624 | 22.22° C | 82% | 1010.3 hPa | 0 mm | - | - | - |
| 1777300024 | 22.22° C | 83% | 1010.4 hPa | 0 mm | - | - | - |
| 1777299423 | 22.22° C | 83% | 1010.4 hPa | 0 mm | - | - | - |
| 1777296424 | 22.78° C | 80% | 1010.5 hPa | 0 mm | - | - | - |
| 1777295823 | 22.78° C | 81% | 1010.4 hPa | 0 mm | - | - | - |
| 1777295223 | 22.78° C | 80% | 1010.3 hPa | 0 mm | - | - | - |
| 1777294624 | 23.33° C | 78% | 1010.2 hPa | 0 mm | - | - | - |
| 1777293424 | 23.33° C | 78% | 1010.2 hPa | 0 mm | - | - | - |
| 1777292823 | 23.33° C | 80% | 1010.1 hPa | 0 mm | - | - | - |
| 1777292223 | 23.89° C | 79% | 1010 hPa | 0 mm | - | - | - |
| 1777291623 | 23.89° C | 80% | 1009.9 hPa | 0 mm | - | - | - |
| 1777290424 | 23.89° C | 77% | 1009.6 hPa | 0 mm | - | - | - |
| 1777289824 | 23.89° C | 78% | 1009.5 hPa | 0 mm | - | - | - |
| 1777289224 | 23.89° C | 79% | 1009.3 hPa | 0 mm | - | - | - |
| 1777288625 | 24.44° C | 74% | 1009.1 hPa | 0 mm | - | - | - |
* Rain latest hour (hover to see other rain measurements)
** Current wind speed in m/s (hover to see current wind gust speed)